sensor_id;sensor_type;location;lat;lon;timestamp;P1;durP1;ratioP1;P2;durP2;ratioP2
29538;SDS011;16482;51.046;4.498;2023-01-26T00:01:53;20.65;;;16.63;;
29538;SDS011;16482;51.046;4.498;2023-01-26T00:04:26;19.83;;;16.95;;
29538;SDS011;16482;51.046;4.498;2023-01-26T00:06:52;19.52;;;16.90;;
29538;SDS011;16482;51.046;4.498;2023-01-26T00:09:21;19.15;;;16.35;;
29538;SDS011;16482;51.046;4.498;2023-01-26T00:11:55;21.23;;;17.27;;
29538;SDS011;16482;51.046;4.498;2023-01-26T00:14:24;20.83;;;17.02;;
29538;SDS011;16482;51.046;4.498;2023-01-26T00:16:57;20.70;;;16.73;;
29538;SDS011;16482;51.046;4.498;2023-01-26T00:19:23;21.30;;;17.17;;
29538;SDS011;16482;51.046;4.498;2023-01-26T00:21:58;19.83;;;16.50;;
29538;SDS011;16482;51.046;4.498;2023-01-26T00:24:24;20.35;;;16.83;;
29538;SDS011;16482;51.046;4.498;2023-01-26T00:26:57;19.25;;;16.40;;
29538;SDS011;16482;51.046;4.498;2023-01-26T00:29:23;20.95;;;16.98;;
29538;SDS011;16482;51.046;4.498;2023-01-26T00:31:56;19.13;;;15.68;;
29538;SDS011;16482;51.046;4.498;2023-01-26T00:34:25;18.90;;;16.63;;
29538;SDS011;16482;51.046;4.498;2023-01-26T00:36:54;19.52;;;16.02;;
29538;SDS011;16482;51.046;4.498;2023-01-26T00:39:23;21.35;;;17.02;;
29538;SDS011;16482;51.046;4.498;2023-01-26T00:41:56;19.60;;;15.77;;
29538;SDS011;16482;51.046;4.498;2023-01-26T00:44:34;19.98;;;16.75;;
29538;SDS011;16482;51.046;4.498;2023-01-26T00:47:01;19.35;;;16.27;;
29538;SDS011;16482;51.046;4.498;2023-01-26T00:49:27;18.92;;;16.05;;
29538;SDS011;16482;51.046;4.498;2023-01-26T00:51:53;17.65;;;15.38;;
29538;SDS011;16482;51.046;4.498;2023-01-26T00:54:27;18.88;;;16.00;;
29538;SDS011;16482;51.046;4.498;2023-01-26T00:56:53;19.48;;;16.10;;
29538;SDS011;16482;51.046;4.498;2023-01-26T00:59:26;17.70;;;15.73;;
29538;SDS011;16482;51.046;4.498;2023-01-26T01:01:53;17.50;;;15.57;;
29538;SDS011;16482;51.046;4.498;2023-01-26T01:04:29;18.25;;;15.63;;
29538;SDS011;16482;51.046;4.498;2023-01-26T01:06:55;17.80;;;15.20;;
29538;SDS011;16482;51.046;4.498;2023-01-26T01:09:24;19.20;;;15.63;;
29538;SDS011;16482;51.046;4.498;2023-01-26T01:11:53;17.13;;;14.70;;
29538;SDS011;16482;51.046;4.498;2023-01-26T01:14:21;17.85;;;15.10;;
29538;SDS011;16482;51.046;4.498;2023-01-26T01:16:55;18.10;;;15.45;;
29538;SDS011;16482;51.046;4.498;2023-01-26T01:19:21;17.65;;;14.45;;
29538;SDS011;16482;51.046;4.498;2023-01-26T01:21:54;17.40;;;15.50;;
29538;SDS011;16482;51.046;4.498;2023-01-26T01:24:23;17.95;;;15.23;;
29538;SDS011;16482;51.046;4.498;2023-01-26T01:26:57;18.63;;;15.18;;
29538;SDS011;16482;51.046;4.498;2023-01-26T01:29:23;17.23;;;14.65;;
29538;SDS011;16482;51.046;4.498;2023-01-26T01:31:56;15.65;;;13.57;;
29538;SDS011;16482;51.046;4.498;2023-01-26T01:34:22;16.83;;;14.23;;
29538;SDS011;16482;51.046;4.498;2023-01-26T01:36:51;16.48;;;13.73;;
29538;SDS011;16482;51.046;4.498;2023-01-26T01:39:26;17.08;;;14.90;;
29538;SDS011;16482;51.046;4.498;2023-01-26T01:41:52;16.55;;;14.43;;
29538;SDS011;16482;51.046;4.498;2023-01-26T01:44:27;17.55;;;14.38;;
29538;SDS011;16482;51.046;4.498;2023-01-26T01:47:01;15.77;;;14.07;;
29538;SDS011;16482;51.046;4.498;2023-01-26T01:49:37;16.45;;;13.60;;
29538;SDS011;16482;51.046;4.498;2023-01-26T01:52:11;15.57;;;13.85;;
29538;SDS011;16482;51.046;4.498;2023-01-26T01:54:49;16.27;;;13.27;;
29538;SDS011;16482;51.046;4.498;2023-01-26T01:57:27;15.73;;;14.00;;
29538;SDS011;16482;51.046;4.498;2023-01-26T02:00:12;16.60;;;14.52;;
29538;SDS011;16482;51.046;4.498;2023-01-26T02:02:44;15.55;;;13.50;;
29538;SDS011;16482;51.046;4.498;2023-01-26T02:05:31;15.10;;;13.50;;
29538;SDS011;16482;51.046;4.498;2023-01-26T02:08:00;16.02;;;13.57;;
29538;SDS011;16482;51.046;4.498;2023-01-26T02:10:28;15.65;;;13.57;;
29538;SDS011;16482;51.046;4.498;2023-01-26T02:12:54;16.48;;;13.32;;
29538;SDS011;16482;51.046;4.498;2023-01-26T02:15:21;16.85;;;14.35;;
29538;SDS011;16482;51.046;4.498;2023-01-26T02:17:50;15.63;;;13.48;;
29538;SDS011;16482;51.046;4.498;2023-01-26T02:20:28;16.38;;;14.32;;
29538;SDS011;16482;51.046;4.498;2023-01-26T02:28:17;14.98;;;12.98;;
29538;SDS011;16482;51.046;4.498;2023-01-26T02:30:45;14.95;;;13.00;;
29538;SDS011;16482;51.046;4.498;2023-01-26T02:36:03;19.05;;;15.18;;
29538;SDS011;16482;51.046;4.498;2023-01-26T02:38:41;16.35;;;13.88;;
29538;SDS011;16482;51.046;4.498;2023-01-26T02:41:11;17.15;;;14.20;;
29538;SDS011;16482;51.046;4.498;2023-01-26T02:44:03;16.17;;;13.93;;
29538;SDS011;16482;51.046;4.498;2023-01-26T02:46:30;18.88;;;14.52;;
29538;SDS011;16482;51.046;4.498;2023-01-26T02:48:56;18.17;;;15.57;;
29538;SDS011;16482;51.046;4.498;2023-01-26T02:51:41;16.63;;;14.13;;
29538;SDS011;16482;51.046;4.498;2023-01-26T02:54:06;18.42;;;14.70;;
29538;SDS011;16482;51.046;4.498;2023-01-26T02:56:33;18.15;;;15.30;;
29538;SDS011;16482;51.046;4.498;2023-01-26T02:59:04;16.00;;;14.18;;
29538;SDS011;16482;51.046;4.498;2023-01-26T03:01:30;16.40;;;14.07;;
29538;SDS011;16482;51.046;4.498;2023-01-26T03:03:56;17.52;;;14.95;;
29538;SDS011;16482;51.046;4.498;2023-01-26T03:06:22;18.42;;;15.63;;
29538;SDS011;16482;51.046;4.498;2023-01-26T03:08:48;17.83;;;14.85;;
29538;SDS011;16482;51.046;4.498;2023-01-26T03:11:14;18.77;;;15.55;;
29538;SDS011;16482;51.046;4.498;2023-01-26T03:13:40;17.60;;;15.05;;
29538;SDS011;16482;51.046;4.498;2023-01-26T03:16:06;16.63;;;14.73;;
29538;SDS011;16482;51.046;4.498;2023-01-26T03:18:33;18.33;;;15.55;;
29538;SDS011;16482;51.046;4.498;2023-01-26T03:21:18;17.17;;;15.32;;
29538;SDS011;16482;51.046;4.498;2023-01-26T03:24:03;16.77;;;14.40;;
29538;SDS011;16482;51.046;4.498;2023-01-26T03:26:56;17.45;;;15.02;;
29538;SDS011;16482;51.046;4.498;2023-01-26T03:29:40;17.33;;;15.10;;
29538;SDS011;16482;51.046;4.498;2023-01-26T03:32:06;16.73;;;14.88;;
29538;SDS011;16482;51.046;4.498;2023-01-26T03:34:32;17.45;;;15.15;;
29538;SDS011;16482;51.046;4.498;2023-01-26T03:36:58;19.02;;;15.70;;
29538;SDS011;16482;51.046;4.498;2023-01-26T03:39:25;18.38;;;15.90;;
29538;SDS011;16482;51.046;4.498;2023-01-26T03:42:09;17.83;;;14.95;;
29538;SDS011;16482;51.046;4.498;2023-01-26T03:44:54;18.27;;;15.82;;
29538;SDS011;16482;51.046;4.498;2023-01-26T03:47:45;18.50;;;15.48;;
29538;SDS011;16482;51.046;4.498;2023-01-26T03:50:30;17.63;;;14.93;;
29538;SDS011;16482;51.046;4.498;2023-01-26T03:53:20;18.30;;;15.43;;
29538;SDS011;16482;51.046;4.498;2023-01-26T03:56:07;17.27;;;14.70;;
29538;SDS011;16482;51.046;4.498;2023-01-26T03:58:56;17.55;;;15.25;;
29538;SDS011;16482;51.046;4.498;2023-01-26T04:01:37;18.63;;;15.65;;
29538;SDS011;16482;51.046;4.498;2023-01-26T04:04:04;17.88;;;15.52;;
29538;SDS011;16482;51.046;4.498;2023-01-26T04:09:37;17.45;;;15.27;;
29538;SDS011;16482;51.046;4.498;2023-01-26T04:12:06;17.50;;;15.60;;
29538;SDS011;16482;51.046;4.498;2023-01-26T04:14:34;16.55;;;14.70;;
29538;SDS011;16482;51.046;4.498;2023-01-26T04:17:18;18.00;;;15.50;;
29538;SDS011;16482;51.046;4.498;2023-01-26T04:20:03;17.60;;;14.68;;
29538;SDS011;16482;51.046;4.498;2023-01-26T04:22:48;17.55;;;15.65;;
29538;SDS011;16482;51.046;4.498;2023-01-26T04:25:17;20.10;;;15.90;;
29538;SDS011;16482;51.046;4.498;2023-01-26T04:27:43;17.88;;;15.63;;
29538;SDS011;16482;51.046;4.498;2023-01-26T04:30:12;18.38;;;16.25;;
29538;SDS011;16482;51.046;4.498;2023-01-26T04:32:47;17.65;;;15.23;;
29538;SDS011;16482;51.046;4.498;2023-01-26T04:37:46;16.38;;;14.60;;
29538;SDS011;16482;51.046;4.498;2023-01-26T04:40:14;16.65;;;14.52;;
29538;SDS011;16482;51.046;4.498;2023-01-26T04:42:43;17.00;;;14.77;;
29538;SDS011;16482;51.046;4.498;2023-01-26T04:45:18;16.58;;;14.68;;
29538;SDS011;16482;51.046;4.498;2023-01-26T04:47:44;16.67;;;14.02;;
29538;SDS011;16482;51.046;4.498;2023-01-26T04:50:13;16.23;;;13.57;;
29538;SDS011;16482;51.046;4.498;2023-01-26T04:52:46;14.98;;;12.77;;
29538;SDS011;16482;51.046;4.498;2023-01-26T04:55:15;14.40;;;12.90;;
29538;SDS011;16482;51.046;4.498;2023-01-26T04:57:43;14.90;;;12.90;;
29538;SDS011;16482;51.046;4.498;2023-01-26T05:00:17;14.10;;;12.60;;
29538;SDS011;16482;51.046;4.498;2023-01-26T05:02:43;14.13;;;12.63;;
29538;SDS011;16482;51.046;4.498;2023-01-26T05:05:11;12.27;;;10.98;;
29538;SDS011;16482;51.046;4.498;2023-01-26T05:07:37;12.63;;;11.32;;
29538;SDS011;16482;51.046;4.498;2023-01-26T05:10:06;13.70;;;11.90;;
29538;SDS011;16482;51.046;4.498;2023-01-26T05:12:48;12.57;;;11.25;;
29538;SDS011;16482;51.046;4.498;2023-01-26T05:15:16;12.80;;;11.43;;
29538;SDS011;16482;51.046;4.498;2023-01-26T05:17:45;12.93;;;11.63;;
29538;SDS011;16482;51.046;4.498;2023-01-26T05:20:18;12.07;;;10.88;;
29538;SDS011;16482;51.046;4.498;2023-01-26T05:22:44;11.63;;;10.43;;
29538;SDS011;16482;51.046;4.498;2023-01-26T05:25:13;12.57;;;10.63;;
29538;SDS011;16482;51.046;4.498;2023-01-26T05:27:47;12.38;;;11.07;;
29538;SDS011;16482;51.046;4.498;2023-01-26T05:30:13;11.77;;;10.57;;
29538;SDS011;16482;51.046;4.498;2023-01-26T05:32:47;11.57;;;10.35;;
29538;SDS011;16482;51.046;4.498;2023-01-26T05:35:13;10.52;;;9.38;;
29538;SDS011;16482;51.046;4.498;2023-01-26T05:37:46;10.05;;;9.00;;
29538;SDS011;16482;51.046;4.498;2023-01-26T05:40:12;9.90;;;8.90;;
29538;SDS011;16482;51.046;4.498;2023-01-26T05:42:44;10.30;;;9.27;;
29538;SDS011;16482;51.046;4.498;2023-01-26T05:45:18;9.52;;;8.52;;
29538;SDS011;16482;51.046;4.498;2023-01-26T05:47:44;8.93;;;8.05;;
29538;SDS011;16482;51.046;4.498;2023-01-26T05:52:44;8.85;;;7.95;;
29538;SDS011;16482;51.046;4.498;2023-01-26T05:55:11;8.52;;;7.63;;
29538;SDS011;16482;51.046;4.498;2023-01-26T05:57:44;8.57;;;7.70;;
29538;SDS011;16482;51.046;4.498;2023-01-26T06:00:13;9.07;;;8.18;;
29538;SDS011;16482;51.046;4.498;2023-01-26T06:02:42;9.00;;;7.53;;
29538;SDS011;16482;51.046;4.498;2023-01-26T06:05:15;8.23;;;7.40;;
29538;SDS011;16482;51.046;4.498;2023-01-26T06:07:41;8.45;;;7.65;;
29538;SDS011;16482;51.046;4.498;2023-01-26T06:10:16;7.95;;;7.15;;
29538;SDS011;16482;51.046;4.498;2023-01-26T06:12:45;7.68;;;6.93;;
29538;SDS011;16482;51.046;4.498;2023-01-26T06:15:19;8.07;;;7.28;;
29538;SDS011;16482;51.046;4.498;2023-01-26T06:17:45;7.82;;;7.07;;
29538;SDS011;16482;51.046;4.498;2023-01-26T06:20:11;7.82;;;7.03;;
29538;SDS011;16482;51.046;4.498;2023-01-26T06:22:46;7.53;;;6.68;;
29538;SDS011;16482;51.046;4.498;2023-01-26T06:25:15;6.88;;;6.18;;
29538;SDS011;16482;51.046;4.498;2023-01-26T06:27:43;7.50;;;6.70;;
29538;SDS011;16482;51.046;4.498;2023-01-26T06:30:18;7.13;;;6.43;;
29538;SDS011;16482;51.046;4.498;2023-01-26T06:32:45;7.03;;;6.32;;
29538;SDS011;16482;51.046;4.498;2023-01-26T06:35:14;7.40;;;6.70;;
29538;SDS011;16482;51.046;4.498;2023-01-26T06:37:43;6.50;;;5.90;;
29538;SDS011;16482;51.046;4.498;2023-01-26T06:40:14;6.93;;;6.22;;
29538;SDS011;16482;51.046;4.498;2023-01-26T06:42:48;6.72;;;6.03;;
29538;SDS011;16482;51.046;4.498;2023-01-26T06:45:14;6.35;;;5.75;;
29538;SDS011;16482;51.046;4.498;2023-01-26T06:47:48;7.07;;;6.35;;
29538;SDS011;16482;51.046;4.498;2023-01-26T06:50:18;6.43;;;5.82;;
29538;SDS011;16482;51.046;4.498;2023-01-26T06:52:47;6.47;;;5.88;;
29538;SDS011;16482;51.046;4.498;2023-01-26T06:55:26;7.00;;;6.30;;
29538;SDS011;16482;51.046;4.498;2023-01-26T06:57:58;6.63;;;5.97;;
29538;SDS011;16482;51.046;4.498;2023-01-26T07:00:24;6.30;;;5.70;;
29538;SDS011;16482;51.046;4.498;2023-01-26T07:02:50;6.47;;;5.88;;
29538;SDS011;16482;51.046;4.498;2023-01-26T07:05:16;5.95;;;5.38;;
29538;SDS011;16482;51.046;4.498;2023-01-26T07:07:45;5.93;;;5.32;;
29538;SDS011;16482;51.046;4.498;2023-01-26T07:10:13;6.20;;;5.60;;
29538;SDS011;16482;51.046;4.498;2023-01-26T07:12:48;6.63;;;6.00;;
29538;SDS011;16482;51.046;4.498;2023-01-26T07:15:14;5.60;;;5.10;;
29538;SDS011;16482;51.046;4.498;2023-01-26T07:17:48;6.47;;;5.30;;
29538;SDS011;16482;51.046;4.498;2023-01-26T07:20:17;5.88;;;5.35;;
29538;SDS011;16482;51.046;4.498;2023-01-26T07:22:43;6.18;;;5.57;;
29538;SDS011;16482;51.046;4.498;2023-01-26T07:25:16;5.68;;;5.10;;
29538;SDS011;16482;51.046;4.498;2023-01-26T07:27:43;8.75;;;6.50;;
29538;SDS011;16482;51.046;4.498;2023-01-26T07:30:18;6.45;;;5.85;;
29538;SDS011;16482;51.046;4.498;2023-01-26T07:32:44;6.43;;;5.80;;
29538;SDS011;16482;51.046;4.498;2023-01-26T07:35:17;8.73;;;5.60;;
29538;SDS011;16482;51.046;4.498;2023-01-26T07:37:43;6.13;;;5.53;;
29538;SDS011;16482;51.046;4.498;2023-01-26T07:40:17;5.50;;;5.00;;
29538;SDS011;16482;51.046;4.498;2023-01-26T07:42:43;5.70;;;5.20;;
29538;SDS011;16482;51.046;4.498;2023-01-26T07:45:18;6.10;;;5.50;;
29538;SDS011;16482;51.046;4.498;2023-01-26T07:47:46;6.18;;;5.57;;
29538;SDS011;16482;51.046;4.498;2023-01-26T07:50:15;5.65;;;5.07;;
29538;SDS011;16482;51.046;4.498;2023-01-26T07:52:44;5.47;;;4.97;;
29538;SDS011;16482;51.046;4.498;2023-01-26T07:55:18;5.35;;;4.85;;
29538;SDS011;16482;51.046;4.498;2023-01-26T07:57:47;5.63;;;5.03;;
29538;SDS011;16482;51.046;4.498;2023-01-26T08:00:14;5.05;;;4.55;;
29538;SDS011;16482;51.046;4.498;2023-01-26T08:02:48;5.32;;;4.82;;
29538;SDS011;16482;51.046;4.498;2023-01-26T08:05:14;5.50;;;5.00;;
29538;SDS011;16482;51.046;4.498;2023-01-26T08:07:48;5.22;;;4.70;;
29538;SDS011;16482;51.046;4.498;2023-01-26T08:10:14;5.30;;;4.80;;
29538;SDS011;16482;51.046;4.498;2023-01-26T08:12:40;5.28;;;4.78;;
29538;SDS011;16482;51.046;4.498;2023-01-26T08:15:13;5.47;;;4.97;;
29538;SDS011;16482;51.046;4.498;2023-01-26T08:17:47;5.45;;;4.95;;
29538;SDS011;16482;51.046;4.498;2023-01-26T08:20:15;5.40;;;4.90;;
29538;SDS011;16482;51.046;4.498;2023-01-26T08:22:44;5.10;;;4.60;;
29538;SDS011;16482;51.046;4.498;2023-01-26T08:25:17;5.50;;;5.00;;
29538;SDS011;16482;51.046;4.498;2023-01-26T08:27:43;5.07;;;4.57;;
29538;SDS011;16482;51.046;4.498;2023-01-26T08:30:12;5.50;;;4.97;;
29538;SDS011;16482;51.046;4.498;2023-01-26T08:32:47;5.35;;;4.85;;
29538;SDS011;16482;51.046;4.498;2023-01-26T08:35:13;5.95;;;5.35;;
29538;SDS011;16482;51.046;4.498;2023-01-26T08:37:48;5.70;;;5.10;;
29538;SDS011;16482;51.046;4.498;2023-01-26T08:40:14;5.72;;;5.07;;
29538;SDS011;16482;51.046;4.498;2023-01-26T08:42:47;5.25;;;4.75;;
29538;SDS011;16482;51.046;4.498;2023-01-26T08:45:16;5.43;;;4.93;;
29538;SDS011;16482;51.046;4.498;2023-01-26T08:47:42;5.20;;;4.70;;
29538;SDS011;16482;51.046;4.498;2023-01-26T08:50:16;4.90;;;4.40;;
29538;SDS011;16482;51.046;4.498;2023-01-26T08:52:45;5.82;;;5.20;;
29538;SDS011;16482;51.046;4.498;2023-01-26T08:55:11;5.35;;;4.82;;
29538;SDS011;16482;51.046;4.498;2023-01-26T08:57:45;5.20;;;4.70;;
29538;SDS011;16482;51.046;4.498;2023-01-26T09:00:15;5.40;;;4.90;;
29538;SDS011;16482;51.046;4.498;2023-01-26T09:02:42;4.97;;;4.47;;
29538;SDS011;16482;51.046;4.498;2023-01-26T09:05:15;5.07;;;4.57;;
29538;SDS011;16482;51.046;4.498;2023-01-26T09:07:44;5.72;;;5.07;;
29538;SDS011;16482;51.046;4.498;2023-01-26T09:10:13;6.20;;;5.57;;
29538;SDS011;16482;51.046;4.498;2023-01-26T09:12:47;5.03;;;4.53;;
29538;SDS011;16482;51.046;4.498;2023-01-26T09:15:15;5.40;;;4.90;;
29538;SDS011;16482;51.046;4.498;2023-01-26T09:17:43;5.75;;;5.25;;
29538;SDS011;16482;51.046;4.498;2023-01-26T09:20:15;5.47;;;4.97;;
29538;SDS011;16482;51.046;4.498;2023-01-26T09:22:44;6.05;;;5.45;;
29538;SDS011;16482;51.046;4.498;2023-01-26T09:25:14;6.00;;;5.40;;
29538;SDS011;16482;51.046;4.498;2023-01-26T09:27:47;5.78;;;5.28;;
29538;SDS011;16482;51.046;4.498;2023-01-26T09:30:14;6.45;;;5.65;;
29538;SDS011;16482;51.046;4.498;2023-01-26T09:32:47;6.78;;;6.03;;
29538;SDS011;16482;51.046;4.498;2023-01-26T09:35:13;6.80;;;6.00;;
29538;SDS011;16482;51.046;4.498;2023-01-26T09:37:48;8.52;;;7.20;;
29538;SDS011;16482;51.046;4.498;2023-01-26T09:40:22;8.68;;;7.05;;
29538;SDS011;16482;51.046;4.498;2023-01-26T09:45:53;6.50;;;5.90;;
29538;SDS011;16482;51.046;4.498;2023-01-26T09:51:27;8.10;;;6.80;;
29538;SDS011;16482;51.046;4.498;2023-01-26T09:54:30;8.55;;;6.72;;
29538;SDS011;16482;51.046;4.498;2023-01-26T09:57:15;7.47;;;6.45;;
29538;SDS011;16482;51.046;4.498;2023-01-26T09:59:44;7.28;;;6.32;;
29538;SDS011;16482;51.046;4.498;2023-01-26T10:02:20;6.72;;;6.03;;
29538;SDS011;16482;51.046;4.498;2023-01-26T10:04:55;6.43;;;5.82;;
29538;SDS011;16482;51.046;4.498;2023-01-26T10:07:25;6.82;;;5.78;;
29538;SDS011;16482;51.046;4.498;2023-01-26T10:09:54;6.93;;;6.22;;
29538;SDS011;16482;51.046;4.498;2023-01-26T10:12:25;6.28;;;5.68;;
29538;SDS011;16482;51.046;4.498;2023-01-26T10:15:05;7.20;;;5.90;;
29538;SDS011;16482;51.046;4.498;2023-01-26T10:17:47;6.95;;;6.00;;
29538;SDS011;16482;51.046;4.498;2023-01-26T10:22:54;8.13;;;6.05;;
29538;SDS011;16482;51.046;4.498;2023-01-26T10:25:33;8.27;;;6.00;;
29538;SDS011;16482;51.046;4.498;2023-01-26T10:28:20;7.30;;;6.45;;
29538;SDS011;16482;51.046;4.498;2023-01-26T10:31:13;6.82;;;6.00;;
29538;SDS011;16482;51.046;4.498;2023-01-26T10:33:55;6.72;;;6.00;;
29538;SDS011;16482;51.046;4.498;2023-01-26T10:36:30;7.45;;;6.22;;
29538;SDS011;16482;51.046;4.498;2023-01-26T10:39:07;7.40;;;6.22;;
29538;SDS011;16482;51.046;4.498;2023-01-26T10:41:35;7.05;;;6.20;;
29538;SDS011;16482;51.046;4.498;2023-01-26T10:46:40;7.25;;;6.07;;
29538;SDS011;16482;51.046;4.498;2023-01-26T10:51:33;7.78;;;6.72;;
29538;SDS011;16482;51.046;4.498;2023-01-26T10:56:57;6.60;;;5.50;;
29538;SDS011;16482;51.046;4.498;2023-01-26T10:59:25;7.53;;;5.68;;
29538;SDS011;16482;51.046;4.498;2023-01-26T11:05:28;9.00;;;6.85;;
29538;SDS011;16482;51.046;4.498;2023-01-26T11:10:27;10.95;;;7.00;;
29538;SDS011;16482;51.046;4.498;2023-01-26T11:13:07;9.05;;;6.95;;
29538;SDS011;16482;51.046;4.498;2023-01-26T11:15:37;7.90;;;6.20;;
29538;SDS011;16482;51.046;4.498;2023-01-26T11:18:12;7.60;;;6.50;;
29538;SDS011;16482;51.046;4.498;2023-01-26T11:21:09;9.00;;;7.00;;
29538;SDS011;16482;51.046;4.498;2023-01-26T11:24:03;9.05;;;6.43;;
29538;SDS011;16482;51.046;4.498;2023-01-26T11:29:56;8.93;;;6.25;;
29538;SDS011;16482;51.046;4.498;2023-01-26T11:35:33;7.95;;;6.30;;
29538;SDS011;16482;51.046;4.498;2023-01-26T11:38:23;9.48;;;7.13;;
29538;SDS011;16482;51.046;4.498;2023-01-26T11:46:33;8.55;;;6.57;;
29538;SDS011;16482;51.046;4.498;2023-01-26T11:49:37;9.15;;;6.18;;
29538;SDS011;16482;51.046;4.498;2023-01-26T12:00:22;12.05;;;6.80;;
29538;SDS011;16482;51.046;4.498;2023-01-26T12:03:03;8.45;;;6.38;;
29538;SDS011;16482;51.046;4.498;2023-01-26T12:05:46;9.73;;;6.38;;
29538;SDS011;16482;51.046;4.498;2023-01-26T12:08:41;8.48;;;5.80;;
29538;SDS011;16482;51.046;4.498;2023-01-26T12:11:37;10.35;;;5.32;;
29538;SDS011;16482;51.046;4.498;2023-01-26T12:23:05;8.07;;;5.55;;
29538;SDS011;16482;51.046;4.498;2023-01-26T12:25:43;9.20;;;5.47;;
29538;SDS011;16482;51.046;4.498;2023-01-26T12:28:18;9.63;;;5.55;;
29538;SDS011;16482;51.046;4.498;2023-01-26T12:38:19;7.65;;;4.70;;
29538;SDS011;16482;51.046;4.498;2023-01-26T12:41:08;7.85;;;4.47;;
29538;SDS011;16482;51.046;4.498;2023-01-26T12:43:48;6.88;;;4.15;;
29538;SDS011;16482;51.046;4.498;2023-01-26T12:46:42;7.15;;;4.00;;
29538;SDS011;16482;51.046;4.498;2023-01-26T12:49:28;6.47;;;4.18;;
29538;SDS011;16482;51.046;4.498;2023-01-26T12:52:06;6.03;;;4.10;;
29538;SDS011;16482;51.046;4.498;2023-01-26T12:54:48;6.55;;;3.90;;
29538;SDS011;16482;51.046;4.498;2023-01-26T12:57:25;7.07;;;4.18;;
29538;SDS011;16482;51.046;4.498;2023-01-26T13:00:16;6.22;;;3.72;;
29538;SDS011;16482;51.046;4.498;2023-01-26T13:02:47;7.57;;;3.80;;
29538;SDS011;16482;51.046;4.498;2023-01-26T13:05:39;5.93;;;3.72;;
29538;SDS011;16482;51.046;4.498;2023-01-26T13:11:07;4.95;;;3.55;;
29538;SDS011;16482;51.046;4.498;2023-01-26T13:13:50;5.78;;;3.38;;
29538;SDS011;16482;51.046;4.498;2023-01-26T13:18:50;7.28;;;3.80;;
29538;SDS011;16482;51.046;4.498;2023-01-26T13:24:49;7.28;;;3.80;;
29538;SDS011;16482;51.046;4.498;2023-01-26T13:27:00;6.95;;;3.55;;
29538;SDS011;16482;51.046;4.498;2023-01-26T13:37:10;5.80;;;3.13;;
29538;SDS011;16482;51.046;4.498;2023-01-26T13:39:43;6.93;;;3.17;;
29538;SDS011;16482;51.046;4.498;2023-01-26T13:42:21;7.05;;;3.30;;
29538;SDS011;16482;51.046;4.498;2023-01-26T13:45:25;4.15;;;2.90;;
29538;SDS011;16482;51.046;4.498;2023-01-26T13:47:51;4.75;;;2.88;;
29538;SDS011;16482;51.046;4.498;2023-01-26T13:52:47;6.97;;;2.70;;
29538;SDS011;16482;51.046;4.498;2023-01-26T13:55:24;5.68;;;2.88;;
29538;SDS011;16482;51.046;4.498;2023-01-26T14:00:38;4.35;;;2.40;;
29538;SDS011;16482;51.046;4.498;2023-01-26T14:03:04;4.00;;;2.47;;
29538;SDS011;16482;51.046;4.498;2023-01-26T14:05:43;4.97;;;2.65;;
29538;SDS011;16482;51.046;4.498;2023-01-26T14:08:15;5.15;;;2.88;;
29538;SDS011;16482;51.046;4.498;2023-01-26T14:10:42;4.38;;;2.58;;
29538;SDS011;16482;51.046;4.498;2023-01-26T14:13:12;5.50;;;2.53;;
29538;SDS011;16482;51.046;4.498;2023-01-26T14:15:54;6.38;;;2.97;;
29538;SDS011;16482;51.046;4.498;2023-01-26T14:18:36;4.47;;;2.60;;
29538;SDS011;16482;51.046;4.498;2023-01-26T14:21:05;6.88;;;2.83;;
29538;SDS011;16482;51.046;4.498;2023-01-26T14:23:40;4.88;;;2.42;;
29538;SDS011;16482;51.046;4.498;2023-01-26T14:26:17;4.63;;;2.65;;
29538;SDS011;16482;51.046;4.498;2023-01-26T14:28:45;3.50;;;2.30;;
29538;SDS011;16482;51.046;4.498;2023-01-26T14:31:14;4.55;;;2.50;;
29538;SDS011;16482;51.046;4.498;2023-01-26T14:33:46;4.85;;;2.40;;
29538;SDS011;16482;51.046;4.498;2023-01-26T14:36:16;3.80;;;2.10;;
29538;SDS011;16482;51.046;4.498;2023-01-26T14:38:45;5.78;;;2.58;;
29538;SDS011;16482;51.046;4.498;2023-01-26T14:43:48;5.32;;;2.40;;
29538;SDS011;16482;51.046;4.498;2023-01-26T14:46:17;4.30;;;2.15;;
29538;SDS011;16482;51.046;4.498;2023-01-26T14:48:51;5.60;;;2.17;;
29538;SDS011;16482;51.046;4.498;2023-01-26T14:51:19;4.20;;;2.25;;
29538;SDS011;16482;51.046;4.498;2023-01-26T14:53:51;4.97;;;2.50;;
29538;SDS011;16482;51.046;4.498;2023-01-26T14:56:38;4.78;;;2.10;;
29538;SDS011;16482;51.046;4.498;2023-01-26T14:59:05;4.72;;;2.47;;
29538;SDS011;16482;51.046;4.498;2023-01-26T15:01:33;6.90;;;2.70;;
29538;SDS011;16482;51.046;4.498;2023-01-26T15:04:04;6.15;;;2.42;;
29538;SDS011;16482;51.046;4.498;2023-01-26T15:06:44;5.47;;;2.33;;
29538;SDS011;16482;51.046;4.498;2023-01-26T15:12:01;4.90;;;2.25;;
29538;SDS011;16482;51.046;4.498;2023-01-26T15:22:50;7.00;;;2.45;;
29538;SDS011;16482;51.046;4.498;2023-01-26T15:25:18;3.70;;;2.35;;
29538;SDS011;16482;51.046;4.498;2023-01-26T15:27:57;5.07;;;2.60;;
29538;SDS011;16482;51.046;4.498;2023-01-26T15:30:25;4.28;;;2.10;;
29538;SDS011;16482;51.046;4.498;2023-01-26T15:32:53;3.78;;;2.17;;
29538;SDS011;16482;51.046;4.498;2023-01-26T15:35:20;4.18;;;2.33;;
29538;SDS011;16482;51.046;4.498;2023-01-26T15:38:01;4.30;;;2.38;;
29538;SDS011;16482;51.046;4.498;2023-01-26T15:40:29;4.95;;;2.30;;
29538;SDS011;16482;51.046;4.498;2023-01-26T15:43:15;4.40;;;2.10;;
29538;SDS011;16482;51.046;4.498;2023-01-26T15:45:49;4.35;;;2.40;;
29538;SDS011;16482;51.046;4.498;2023-01-26T15:48:15;4.43;;;2.10;;
29538;SDS011;16482;51.046;4.498;2023-01-26T15:50:41;4.18;;;2.30;;
29538;SDS011;16482;51.046;4.498;2023-01-26T15:53:12;4.55;;;2.00;;
29538;SDS011;16482;51.046;4.498;2023-01-26T15:55:38;4.15;;;2.08;;
29538;SDS011;16482;51.046;4.498;2023-01-26T15:58:06;3.53;;;2.00;;
29538;SDS011;16482;51.046;4.498;2023-01-26T16:00:32;4.78;;;2.22;;
29538;SDS011;16482;51.046;4.498;2023-01-26T16:02:57;4.60;;;1.92;;
29538;SDS011;16482;51.046;4.498;2023-01-26T16:05:26;4.38;;;2.10;;
29538;SDS011;16482;51.046;4.498;2023-01-26T16:07:52;4.03;;;1.77;;
29538;SDS011;16482;51.046;4.498;2023-01-26T16:10:18;3.25;;;2.08;;
29538;SDS011;16482;51.046;4.498;2023-01-26T16:12:51;3.78;;;1.85;;
29538;SDS011;16482;51.046;4.498;2023-01-26T16:18:21;5.90;;;2.38;;
29538;SDS011;16482;51.046;4.498;2023-01-26T16:20:48;4.15;;;1.70;;
29538;SDS011;16482;51.046;4.498;2023-01-26T16:23:18;5.00;;;2.03;;
29538;SDS011;16482;51.046;4.498;2023-01-26T16:25:49;3.27;;;1.63;;
29538;SDS011;16482;51.046;4.498;2023-01-26T16:28:15;4.82;;;1.90;;
29538;SDS011;16482;51.046;4.498;2023-01-26T16:30:42;4.93;;;2.13;;
29538;SDS011;16482;51.046;4.498;2023-01-26T16:33:13;3.22;;;1.77;;
29538;SDS011;16482;51.046;4.498;2023-01-26T16:35:40;3.80;;;1.60;;
29538;SDS011;16482;51.046;4.498;2023-01-26T16:38:07;3.30;;;1.80;;
29538;SDS011;16482;51.046;4.498;2023-01-26T16:40:37;2.63;;;1.75;;
29538;SDS011;16482;51.046;4.498;2023-01-26T16:43:04;3.72;;;1.45;;
29538;SDS011;16482;51.046;4.498;2023-01-26T16:45:46;3.80;;;2.03;;
29538;SDS011;16482;51.046;4.498;2023-01-26T16:48:13;4.65;;;2.20;;
29538;SDS011;16482;51.046;4.498;2023-01-26T16:50:40;3.15;;;1.50;;
29538;SDS011;16482;51.046;4.498;2023-01-26T16:53:17;3.72;;;1.83;;
29538;SDS011;16482;51.046;4.498;2023-01-26T16:55:45;4.05;;;1.77;;
29538;SDS011;16482;51.046;4.498;2023-01-26T16:58:11;4.45;;;1.75;;
29538;SDS011;16482;51.046;4.498;2023-01-26T17:00:37;3.10;;;1.73;;
29538;SDS011;16482;51.046;4.498;2023-01-26T17:03:03;3.55;;;1.90;;